createdAt,value
2018-08-24T07:16:08.000Z,99849
2018-08-24T07:17:54.000Z,99851
2018-08-24T07:18:54.000Z,99851
2018-08-24T07:20:54.000Z,99852
2018-08-24T07:22:54.000Z,99867
2018-08-24T07:23:54.000Z,99870
2018-08-24T07:25:54.000Z,99872
2018-08-24T07:26:54.000Z,99866
2018-08-24T07:27:54.000Z,99863
2018-08-24T07:28:54.000Z,99876
2018-08-24T07:30:54.000Z,99869
2018-08-24T07:32:54.000Z,99869
2018-08-24T07:34:53.000Z,99878
2018-08-24T07:36:53.000Z,99870
2018-08-24T07:38:53.000Z,99876
2018-08-24T07:40:53.000Z,99888
2018-08-24T07:42:54.000Z,99875
2018-08-24T07:43:54.000Z,99892
2018-08-24T07:45:54.000Z,99882
2018-08-24T07:47:54.000Z,99890
2018-08-24T07:49:54.000Z,99897
2018-08-24T07:50:54.000Z,99894
2018-08-24T07:52:54.000Z,99894
2018-08-24T07:53:54.000Z,99901
2018-08-24T07:55:54.000Z,99899
2018-08-24T07:57:54.000Z,99898
2018-08-24T07:58:54.000Z,99901
2018-08-24T08:00:54.000Z,99896
2018-08-24T08:02:54.000Z,99901
2018-08-24T08:04:39.000Z,99906
2018-08-24T08:05:54.000Z,99911
2018-08-24T08:06:54.000Z,99907
2018-08-24T08:08:54.000Z,99907
2018-08-24T08:09:54.000Z,99908
2018-08-24T08:11:54.000Z,99910
2018-08-24T08:13:54.000Z,99908
2018-08-24T08:15:54.000Z,99907
2018-08-24T08:16:54.000Z,99911
2018-08-24T08:18:54.000Z,99901
2018-08-24T08:20:54.000Z,99917
2018-08-24T08:22:54.000Z,99909
2018-08-24T08:24:54.000Z,99913
2018-08-24T08:25:54.000Z,99908
2018-08-24T08:26:54.000Z,99913
2018-08-24T08:28:54.000Z,99922
2018-08-24T08:30:54.000Z,99929
2018-08-24T08:32:54.000Z,99938
2018-08-24T08:33:54.000Z,99930
2018-08-24T08:35:54.000Z,99937
2018-08-24T08:37:54.000Z,99934
2018-08-24T08:38:54.000Z,99935
2018-08-24T08:40:54.000Z,99936
2018-08-24T08:41:54.000Z,99939
2018-08-24T08:43:54.000Z,99948
2018-08-24T08:44:54.000Z,99942
2018-08-24T08:46:54.000Z,99949
2018-08-24T08:48:54.000Z,99957
2018-08-24T08:49:54.000Z,99961
2018-08-24T08:51:24.000Z,99976
2018-08-24T08:52:54.000Z,99967
2018-08-24T08:53:54.000Z,99967
2018-08-24T08:55:39.000Z,99967
2018-08-24T08:56:54.000Z,99970
2018-08-24T08:58:39.000Z,99967
2018-08-24T08:59:54.000Z,99972
2018-08-24T09:01:39.000Z,99969
2018-08-24T09:02:54.000Z,99970
2018-08-24T09:04:54.000Z,99969
2018-08-24T09:05:54.000Z,99975
2018-08-24T09:07:54.000Z,99978
2018-08-24T09:08:54.000Z,99982
2018-08-24T09:10:54.000Z,99983
2018-08-24T09:12:54.000Z,99985
2018-08-24T09:13:54.000Z,99986
2018-08-24T09:15:54.000Z,99982
2018-08-24T09:17:54.000Z,99987
2018-08-24T09:19:54.000Z,99980
2018-08-24T09:20:54.000Z,99983
2018-08-24T09:22:54.000Z,99986
2018-08-24T09:24:54.000Z,99989
2018-08-24T09:29:03.000Z,99998
2018-08-24T09:30:49.000Z,99988
2018-08-24T09:31:49.000Z,99994
2018-08-24T09:33:49.000Z,99993
2018-08-24T09:34:49.000Z,99999
2018-08-24T09:36:49.000Z,100003
2018-08-24T09:38:33.000Z,100008
2018-08-24T09:39:49.000Z,100003
2018-08-24T09:41:49.000Z,100003
2018-08-24T09:43:49.000Z,100011
2018-08-24T09:45:49.000Z,100010
2018-08-24T09:47:49.000Z,100011
2018-08-24T09:49:49.000Z,100018
2018-08-24T09:51:34.000Z,100011
2018-08-24T09:52:50.000Z,100009
2018-08-24T09:53:50.000Z,100015
2018-08-24T09:55:50.000Z,100009
2018-08-24T09:57:50.000Z,100003
2018-08-24T09:58:50.000Z,100005
2018-08-24T09:59:50.000Z,100004
2018-08-24T10:01:34.000Z,100005
2018-08-24T10:02:50.000Z,100009
2018-08-24T10:04:19.000Z,100008
2018-08-24T10:05:50.000Z,100006
2018-08-24T10:06:50.000Z,100009
2018-08-24T10:08:50.000Z,100005
2018-08-24T10:09:50.000Z,99999
2018-08-24T10:10:50.000Z,100003
2018-08-24T10:12:50.000Z,100011
2018-08-24T10:14:50.000Z,100012
2018-08-24T10:16:34.000Z,100007
2018-08-24T10:17:50.000Z,100005
2018-08-24T10:18:50.000Z,100009
2018-08-24T10:20:50.000Z,100011
2018-08-24T10:22:50.000Z,100006
2018-08-24T10:24:50.000Z,100007
2018-08-24T10:26:50.000Z,100001
2018-08-24T10:27:50.000Z,100008
2018-08-24T10:29:50.000Z,100009
2018-08-24T10:31:50.000Z,100008
2018-08-24T10:33:50.000Z,100012
2018-08-24T10:35:50.000Z,100011
2018-08-24T10:37:50.000Z,100001
2018-08-24T10:39:35.000Z,99998
2018-08-24T10:40:50.000Z,99997
2018-08-24T10:41:50.000Z,99993
2018-08-24T10:43:34.000Z,99991
2018-08-24T10:44:50.000Z,99994
2018-08-24T10:45:50.000Z,99990
2018-08-24T10:47:50.000Z,100000
2018-08-24T10:49:50.000Z,99994
2018-08-24T10:50:50.000Z,99999
2018-08-24T10:52:50.000Z,99989
2018-08-24T10:53:49.000Z,99999
2018-08-24T10:54:49.000Z,99995
2018-08-24T10:56:49.000Z,99994
2018-08-24T10:57:49.000Z,99989
2018-08-24T10:58:49.000Z,99987
2018-08-24T11:00:34.000Z,99987
2018-08-24T11:01:49.000Z,99976
2018-08-24T11:02:49.000Z,99984
2018-08-24T11:04:49.000Z,99990
2018-08-24T11:05:49.000Z,99989
2018-08-24T11:07:49.000Z,99994
2018-08-24T11:09:49.000Z,100001
2018-08-24T11:11:49.000Z,99994
2018-08-24T11:13:49.000Z,99990
2018-08-24T11:15:49.000Z,99988
2018-08-24T11:16:49.000Z,99995
2018-08-24T11:18:34.000Z,99992
2018-08-24T11:19:49.000Z,100001
2018-08-24T11:21:34.000Z,100008
2018-08-24T11:22:49.000Z,100006
2018-08-24T11:24:49.000Z,99998
2018-08-24T11:26:49.000Z,100004
2018-08-24T11:28:49.000Z,100004
2018-08-24T11:30:34.000Z,100000
2018-08-24T11:31:49.000Z,100004
2018-08-24T11:33:49.000Z,100007
2018-08-24T11:34:49.000Z,100009
2018-08-24T11:36:49.000Z,100005
2018-08-24T11:38:49.000Z,100006
2018-08-24T11:40:34.000Z,100009
2018-08-24T11:41:49.000Z,99999
2018-08-24T11:42:49.000Z,100010
2018-08-24T11:44:34.000Z,100003
2018-08-24T11:45:49.000Z,100001
2018-08-24T11:47:49.000Z,100009
2018-08-24T11:48:49.000Z,100006
2018-08-24T11:49:49.000Z,100010
2018-08-24T11:51:49.000Z,100004
2018-08-24T11:52:49.000Z,99998
2018-08-24T11:53:49.000Z,100002
2018-08-24T11:55:49.000Z,100005
2018-08-24T11:56:49.000Z,100006
2018-08-24T11:57:49.000Z,100001
2018-08-24T11:59:49.000Z,99998
2018-08-24T12:01:49.000Z,100011
2018-08-24T12:02:49.000Z,99996
2018-08-24T12:03:49.000Z,99998
2018-08-24T12:05:49.000Z,100002
2018-08-24T12:06:49.000Z,100007
2018-08-24T12:07:49.000Z,100005
2018-08-24T12:09:49.000Z,100003
2018-08-24T12:10:49.000Z,100004
2018-08-24T12:12:49.000Z,100000
2018-08-24T12:14:49.000Z,99995
2018-08-24T12:15:49.000Z,100002
2018-08-24T12:17:49.000Z,99995
2018-08-24T12:19:49.000Z,99993
2018-08-24T12:21:49.000Z,99994
2018-08-24T12:23:49.000Z,99993
2018-08-24T12:25:49.000Z,99993
2018-08-24T12:27:49.000Z,99995
2018-08-24T12:29:49.000Z,99985
2018-08-24T12:30:49.000Z,99995
2018-08-24T12:32:49.000Z,99991
2018-08-24T12:33:49.000Z,100001
2018-08-24T12:35:49.000Z,99990
2018-08-24T12:37:49.000Z,99998
2018-08-24T12:39:34.000Z,99997
2018-08-24T12:40:49.000Z,99995
2018-08-24T12:42:19.000Z,99988
2018-08-24T12:43:49.000Z,99984
2018-08-24T12:45:49.000Z,99987
2018-08-24T12:46:49.000Z,99987
2018-08-24T12:48:49.000Z,99984
2018-08-24T12:50:49.000Z,99999
2018-08-24T12:52:34.000Z,99992
2018-08-24T12:53:49.000Z,99985
2018-08-24T12:55:49.000Z,99989
2018-08-24T12:56:49.000Z,99984
2018-08-24T12:58:49.000Z,99985
2018-08-24T13:00:34.000Z,99976
2018-08-24T13:01:49.000Z,99989
2018-08-24T13:03:49.000Z,99982
2018-08-24T13:05:34.000Z,99990
2018-08-24T13:06:49.000Z,99989
2018-08-24T13:07:49.000Z,99992
2018-08-24T13:08:49.000Z,99985
2018-08-24T13:10:49.000Z,99984
2018-08-24T13:11:49.000Z,99983
2018-08-24T13:13:49.000Z,99983
2018-08-24T13:15:49.000Z,99982
2018-08-24T13:16:49.000Z,99983
2018-08-24T13:17:49.000Z,99990
2018-08-24T13:19:49.000Z,99982
2018-08-24T13:20:49.000Z,99976
2018-08-24T13:22:49.000Z,99978
2018-08-24T13:24:49.000Z,99979
2018-08-24T13:25:49.000Z,99972
2018-08-24T13:26:49.000Z,99977
2018-08-24T13:27:49.000Z,99974
2018-08-24T13:29:49.000Z,99973
2018-08-24T13:30:49.000Z,99975
2018-08-24T13:32:49.000Z,99979
2018-08-24T13:34:49.000Z,99978
2018-08-24T13:36:49.000Z,99972
2018-08-24T13:37:49.000Z,99970
2018-08-24T13:39:49.000Z,99973
2018-08-24T13:40:49.000Z,99975
2018-08-24T13:41:49.000Z,99974
2018-08-24T13:43:49.000Z,99970
2018-08-24T13:45:49.000Z,99963
2018-08-24T13:47:49.000Z,99958
2018-08-24T13:48:49.000Z,99963
2018-08-24T13:50:49.000Z,99957
2018-08-24T13:52:49.000Z,99963
2018-08-24T13:54:49.000Z,99965
2018-08-24T13:55:49.000Z,99964
2018-08-24T13:56:49.000Z,99964
2018-08-24T13:58:49.000Z,99966
2018-08-24T13:59:49.000Z,99961
2018-08-24T14:01:49.000Z,99960
2018-08-24T14:02:49.000Z,99964
2018-08-24T14:04:50.000Z,99966
2018-08-24T14:05:50.000Z,99967
2018-08-24T14:07:50.000Z,99971
2018-08-24T14:09:50.000Z,99969
2018-08-24T14:10:50.000Z,99964
2018-08-24T14:11:50.000Z,99970
2018-08-24T14:13:50.000Z,99971
2018-08-24T14:15:50.000Z,99970
2018-08-24T14:17:50.000Z,99956
2018-08-24T14:19:50.000Z,99958
2018-08-24T14:20:50.000Z,99957
2018-08-24T14:22:35.000Z,99960
2018-08-24T14:23:50.000Z,99960
2018-08-24T14:25:50.000Z,99955
2018-08-24T14:26:50.000Z,99954
2018-08-24T14:28:50.000Z,99948
2018-08-24T14:30:50.000Z,99962
2018-08-24T14:32:50.000Z,99952
2018-08-24T14:34:50.000Z,99945
2018-08-24T14:36:35.000Z,99948
2018-08-24T14:37:50.000Z,99946
2018-08-24T14:39:50.000Z,99947
2018-08-24T14:41:50.000Z,99945
2018-08-24T14:42:50.000Z,99953
2018-08-24T14:44:35.000Z,99954
2018-08-24T14:45:50.000Z,99946
2018-08-24T14:47:50.000Z,99944
2018-08-24T14:48:50.000Z,99943
2018-08-24T14:50:35.000Z,99944
2018-08-24T14:51:50.000Z,99933
2018-08-24T14:52:50.000Z,99940
2018-08-24T14:54:50.000Z,99943
2018-08-24T14:56:50.000Z,99939
2018-08-24T14:58:35.000Z,99941
2018-08-24T14:59:50.000Z,99945
2018-08-24T15:01:50.000Z,99941
2018-08-24T15:03:50.000Z,99942
2018-08-24T15:04:50.000Z,99943
2018-08-24T15:06:50.000Z,99939
2018-08-24T15:07:50.000Z,99941
2018-08-24T15:09:49.000Z,99937
2018-08-24T15:11:49.000Z,99939
2018-08-24T15:12:49.000Z,99938
2018-08-24T15:13:49.000Z,99937
2018-08-24T15:15:49.000Z,99936
2018-08-24T15:16:49.000Z,99931
2018-08-24T15:18:34.000Z,99931
2018-08-24T15:19:49.000Z,99936
2018-08-24T15:21:49.000Z,99937
2018-08-24T15:23:49.000Z,99942
2018-08-24T15:25:49.000Z,99934
2018-08-24T15:27:49.000Z,99933
2018-08-24T15:29:34.000Z,99934
2018-08-24T15:30:49.000Z,99932
2018-08-24T15:32:49.000Z,99927
2018-08-24T15:34:49.000Z,99929
2018-08-24T15:35:49.000Z,99928
2018-08-24T15:37:49.000Z,99930
2018-08-24T15:39:49.000Z,99932
2018-08-24T15:41:49.000Z,99930
2018-08-24T15:43:49.000Z,99934
2018-08-24T15:45:49.000Z,99937
2018-08-24T15:46:49.000Z,99937
2018-08-24T15:48:49.000Z,99935
2018-08-24T15:50:34.000Z,99931
2018-08-24T15:51:49.000Z,99937
2018-08-24T15:53:49.000Z,99945
2018-08-24T15:54:49.000Z,99943
2018-08-24T15:56:49.000Z,99940
2018-08-24T15:57:49.000Z,99938
2018-08-24T15:59:34.000Z,99939
2018-08-24T16:00:49.000Z,99935
2018-08-24T16:02:34.000Z,99941
2018-08-24T16:03:49.000Z,99939
2018-08-24T16:05:49.000Z,99940
2018-08-24T16:07:19.000Z,99935
2018-08-24T16:08:49.000Z,99950
2018-08-24T16:10:49.000Z,99945
2018-08-24T16:12:49.000Z,99937
2018-08-24T16:13:49.000Z,99945
2018-08-24T16:15:49.000Z,99950
2018-08-24T16:17:49.000Z,99948
2018-08-24T16:19:49.000Z,99952
2018-08-24T16:21:49.000Z,99944
2018-08-24T16:22:49.000Z,99945
2018-08-24T16:23:49.000Z,99947
2018-08-24T16:25:49.000Z,99950
2018-08-24T16:27:49.000Z,99942
2018-08-24T16:29:49.000Z,99949
2018-08-24T16:30:49.000Z,99946
2018-08-24T16:32:49.000Z,99949
2018-08-24T16:34:49.000Z,99942
2018-08-24T16:36:49.000Z,99945
2018-08-24T16:38:49.000Z,99941
2018-08-24T16:40:49.000Z,99943
2018-08-24T16:42:49.000Z,99940
2018-08-24T16:43:49.000Z,99945
2018-08-24T16:45:19.000Z,99939
2018-08-24T16:46:49.000Z,99947
2018-08-24T16:48:49.000Z,99937
2018-08-24T16:50:34.000Z,99937
2018-08-24T16:51:49.000Z,99947
2018-08-24T16:52:49.000Z,99941
2018-08-24T16:53:49.000Z,99935
2018-08-24T16:55:49.000Z,99940
2018-08-24T16:57:49.000Z,99936
2018-08-24T16:59:49.000Z,99942
2018-08-24T17:01:49.000Z,99956
2018-08-24T17:03:49.000Z,99951
2018-08-24T17:05:34.000Z,99948
2018-08-24T17:06:49.000Z,99948
2018-08-24T17:08:34.000Z,99941
2018-08-24T17:09:49.000Z,99956
2018-08-24T17:11:19.000Z,99951
2018-08-24T17:12:49.000Z,99953
2018-08-24T17:14:49.000Z,99955
2018-08-24T17:16:50.000Z,99949
2018-08-24T17:18:50.000Z,99949
2018-08-24T17:20:50.000Z,99947
2018-08-24T17:22:35.000Z,99945
2018-08-24T17:23:50.000Z,99950
2018-08-24T17:25:50.000Z,99949
2018-08-24T17:27:50.000Z,99947
2018-08-24T17:29:50.000Z,99950
2018-08-24T17:30:50.000Z,99943
2018-08-24T17:32:50.000Z,99944
2018-08-24T17:33:50.000Z,99944
2018-08-24T17:34:50.000Z,99934
2018-08-24T17:36:50.000Z,99933
2018-08-24T17:37:50.000Z,99938
2018-08-24T17:39:50.000Z,99931
2018-08-24T17:40:50.000Z,99937
2018-08-24T17:42:50.000Z,99935
2018-08-24T17:44:50.000Z,99935
2018-08-24T17:45:50.000Z,99930
2018-08-24T17:46:50.000Z,99935
2018-08-24T17:48:50.000Z,99935
2018-08-24T17:50:50.000Z,99938
2018-08-24T17:52:50.000Z,99942
2018-08-24T17:54:50.000Z,99942
2018-08-24T17:55:50.000Z,99942
2018-08-24T17:57:50.000Z,99939
2018-08-24T17:59:50.000Z,99939
2018-08-24T18:01:50.000Z,99946
2018-08-24T18:03:50.000Z,99941
2018-08-24T18:05:50.000Z,99944
2018-08-24T18:07:35.000Z,99947
2018-08-24T18:08:50.000Z,99940
2018-08-24T18:10:50.000Z,99941
2018-08-24T18:11:50.000Z,99936
2018-08-24T18:12:50.000Z,99941
2018-08-24T18:14:50.000Z,99938
2018-08-24T18:16:50.000Z,99941
2018-08-24T18:17:50.000Z,99943
2018-08-24T18:19:34.000Z,99939
2018-08-24T18:20:49.000Z,99941
2018-08-24T18:22:34.000Z,99944
2018-08-24T18:23:49.000Z,99946
2018-08-24T18:24:49.000Z,99940
2018-08-24T18:25:49.000Z,99939
2018-08-24T18:27:49.000Z,99945
2018-08-24T18:28:49.000Z,99939
2018-08-24T18:30:49.000Z,99944
2018-08-24T18:32:49.000Z,99943
2018-08-24T18:33:49.000Z,99945
2018-08-24T18:35:49.000Z,99948
2018-08-24T18:37:49.000Z,99947
2018-08-24T18:39:49.000Z,99945
2018-08-24T18:40:49.000Z,99948
2018-08-24T18:42:49.000Z,99942
2018-08-24T18:44:34.000Z,99944
2018-08-24T18:45:49.000Z,99940
2018-08-24T18:47:49.000Z,99944
2018-08-24T18:49:34.000Z,99947
2018-08-24T18:50:49.000Z,99950
2018-08-24T18:51:49.000Z,99949
2018-08-24T18:53:49.000Z,99952
2018-08-24T18:55:49.000Z,99949
2018-08-24T18:56:49.000Z,99959
2018-08-24T18:58:49.000Z,99955
2018-08-24T18:59:49.000Z,99958
2018-08-24T19:00:49.000Z,99961
2018-08-24T19:02:34.000Z,99956
2018-08-24T19:03:49.000Z,99965
2018-08-24T19:05:34.000Z,99958
2018-08-24T19:06:49.000Z,99963
2018-08-24T19:08:49.000Z,99964
2018-08-24T19:09:49.000Z,99967
2018-08-24T19:10:49.000Z,99965
2018-08-24T19:11:49.000Z,99959
2018-08-24T19:13:49.000Z,99958
2018-08-24T19:15:34.000Z,99962
2018-08-24T19:16:49.000Z,99964
2018-08-24T19:17:49.000Z,99963
2018-08-24T19:18:49.000Z,99961
2018-08-24T19:20:49.000Z,99964
2018-08-24T19:22:49.000Z,99965
2018-08-24T19:23:49.000Z,99964
2018-08-24T19:25:49.000Z,99963
2018-08-24T19:26:49.000Z,99970
2018-08-24T19:28:49.000Z,99973
2018-08-24T19:30:49.000Z,99972
2018-08-24T19:32:34.000Z,99970
2018-08-24T19:33:49.000Z,99975
2018-08-24T19:35:34.000Z,99970
2018-08-24T19:36:49.000Z,99974
2018-08-24T19:38:49.000Z,99967
2018-08-24T19:40:49.000Z,99975
2018-08-24T19:42:49.000Z,99966
2018-08-24T19:44:34.000Z,99971
2018-08-24T19:45:49.000Z,99967
2018-08-24T19:47:49.000Z,99967
2018-08-24T19:49:49.000Z,99966
2018-08-24T19:51:49.000Z,99960
2018-08-24T19:52:49.000Z,99963
2018-08-24T19:53:49.000Z,99960
2018-08-24T19:54:49.000Z,99960
2018-08-24T19:56:34.000Z,99957
2018-08-24T19:57:49.000Z,99959
2018-08-24T19:59:49.000Z,99960
2018-08-24T20:00:49.000Z,99958
2018-08-24T20:01:49.000Z,99956
2018-08-24T20:03:49.000Z,99962
2018-08-24T20:05:49.000Z,99954
2018-08-24T20:06:49.000Z,99958
2018-08-24T20:08:34.000Z,99955
2018-08-24T20:09:49.000Z,99956
2018-08-24T20:11:49.000Z,99956
2018-08-24T20:12:49.000Z,99956
2018-08-24T20:14:49.000Z,99957
2018-08-24T20:16:49.000Z,99957
2018-08-24T20:18:49.000Z,99948
2018-08-24T20:19:49.000Z,99948
2018-08-24T20:21:49.000Z,99944
2018-08-24T20:23:49.000Z,99946
2018-08-24T20:24:49.000Z,99949
2018-08-24T20:26:34.000Z,99944
2018-08-24T20:27:49.000Z,99952
2018-08-24T20:29:49.000Z,99944
2018-08-24T20:31:49.000Z,99940
2018-08-24T20:33:49.000Z,99938
2018-08-24T20:35:49.000Z,99939
2018-08-24T20:36:49.000Z,99936
2018-08-24T20:38:34.000Z,99928
2018-08-24T20:39:49.000Z,99929
2018-08-24T20:41:49.000Z,99926
2018-08-24T20:42:49.000Z,99928
2018-08-24T20:44:49.000Z,99923
2018-08-24T20:46:49.000Z,99922
2018-08-24T20:48:49.000Z,99917
2018-08-24T20:50:49.000Z,99915
2018-08-24T20:51:49.000Z,99915
2018-08-24T20:53:49.000Z,99916
2018-08-24T20:55:49.000Z,99918
2018-08-24T20:57:49.000Z,99918
2018-08-24T20:58:49.000Z,99918
2018-08-24T21:00:49.000Z,99910
2018-08-24T21:02:49.000Z,99914
2018-08-24T21:04:34.000Z,99915
2018-08-24T21:05:49.000Z,99916
2018-08-24T21:06:49.000Z,99916
2018-08-24T21:08:49.000Z,99915
2018-08-24T21:09:49.000Z,99914
2018-08-24T21:11:49.000Z,99916
2018-08-24T21:13:49.000Z,99907
2018-08-24T21:14:49.000Z,99909
2018-08-24T21:16:49.000Z,99903
2018-08-24T21:18:49.000Z,99912
2018-08-24T21:20:34.000Z,99904
2018-08-24T21:21:49.000Z,99901
2018-08-24T21:23:34.000Z,99902
2018-08-24T21:24:49.000Z,99900
2018-08-24T21:25:49.000Z,99902
2018-08-24T21:27:49.000Z,99895
2018-08-24T21:29:49.000Z,99895
2018-08-24T21:31:50.000Z,99888
2018-08-24T21:32:50.000Z,99887
2018-08-24T21:34:50.000Z,99887
2018-08-24T21:36:50.000Z,99888
2018-08-24T21:38:50.000Z,99883
2018-08-24T21:40:50.000Z,99893
2018-08-24T21:42:50.000Z,99886
2018-08-24T21:44:50.000Z,99885
2018-08-24T21:45:50.000Z,99886
2018-08-24T21:46:50.000Z,99878
2018-08-24T21:47:50.000Z,99881
2018-08-24T21:49:50.000Z,99878
2018-08-24T21:50:50.000Z,99877
2018-08-24T21:51:50.000Z,99874
2018-08-24T21:53:50.000Z,99879
2018-08-24T21:55:20.000Z,99880
2018-08-24T21:56:50.000Z,99882
2018-08-24T21:57:50.000Z,99879
2018-08-24T21:58:50.000Z,99880
2018-08-24T22:00:50.000Z,99873
2018-08-24T22:01:50.000Z,99873
2018-08-24T22:03:50.000Z,99871
2018-08-24T22:04:50.000Z,99871
2018-08-24T22:06:50.000Z,99873
2018-08-24T22:08:35.000Z,99866
2018-08-24T22:09:50.000Z,99871
2018-08-24T22:10:50.000Z,99871
2018-08-24T22:12:50.000Z,99871
2018-08-24T22:14:50.000Z,99871
2018-08-24T22:16:50.000Z,99875
2018-08-24T22:18:35.000Z,99876
2018-08-24T22:19:50.000Z,99877
2018-08-24T22:20:50.000Z,99878
2018-08-24T22:22:50.000Z,99877
2018-08-24T22:24:50.000Z,99875
2018-08-24T22:26:20.000Z,99874
2018-08-24T22:27:50.000Z,99875
2018-08-24T22:29:50.000Z,99881
2018-08-24T22:30:50.000Z,99876
2018-08-24T22:32:50.000Z,99874
2018-08-24T22:34:50.000Z,99880
2018-08-24T22:36:50.000Z,99878
2018-08-24T22:38:34.000Z,99877
2018-08-24T22:39:50.000Z,99875
2018-08-24T22:41:50.000Z,99874
2018-08-24T22:43:50.000Z,99871
2018-08-24T22:44:50.000Z,99869
2018-08-24T22:46:34.000Z,99873
2018-08-24T22:47:50.000Z,99871
2018-08-24T22:48:50.000Z,99872
2018-08-24T22:50:50.000Z,99866
2018-08-24T22:52:34.000Z,99868
2018-08-24T22:53:50.000Z,99866
2018-08-24T22:55:50.000Z,99873
2018-08-24T22:56:50.000Z,99866
2018-08-24T22:58:19.000Z,99865
2018-08-24T22:59:50.000Z,99855
2018-08-24T23:01:50.000Z,99858
2018-08-24T23:03:50.000Z,99857
2018-08-24T23:05:50.000Z,99849
2018-08-24T23:07:50.000Z,99852
2018-08-24T23:08:50.000Z,99851
2018-08-24T23:10:50.000Z,99853
2018-08-24T23:12:50.000Z,99848
2018-08-24T23:14:50.000Z,99852
2018-08-24T23:16:34.000Z,99842
2018-08-24T23:17:50.000Z,99845
2018-08-24T23:19:34.000Z,99844
2018-08-24T23:20:50.000Z,99837
2018-08-24T23:22:50.000Z,99838
2018-08-24T23:24:50.000Z,99840
2018-08-24T23:25:50.000Z,99840
2018-08-24T23:27:50.000Z,99830
2018-08-24T23:29:50.000Z,99826
2018-08-24T23:30:50.000Z,99827
2018-08-24T23:32:50.000Z,99826
2018-08-24T23:33:50.000Z,99828
2018-08-24T23:35:50.000Z,99820
2018-08-24T23:37:34.000Z,99826
2018-08-24T23:38:49.000Z,99827
2018-08-24T23:39:49.000Z,99830
2018-08-24T23:41:49.000Z,99824
2018-08-24T23:42:49.000Z,99822
2018-08-24T23:43:49.000Z,99821
2018-08-24T23:45:49.000Z,99813
2018-08-24T23:46:49.000Z,99822
2018-08-24T23:48:49.000Z,99808
2018-08-24T23:49:49.000Z,99814
2018-08-24T23:51:49.000Z,99810
2018-08-24T23:52:49.000Z,99805
2018-08-24T23:54:49.000Z,99799
2018-08-24T23:56:49.000Z,99806
2018-08-24T23:58:49.000Z,99803
